createdAt,value
2018-11-06T00:00:12.673Z,19.65
2018-11-06T00:02:41.527Z,25.48
2018-11-06T00:05:12.038Z,20.48
2018-11-06T00:07:42.123Z,26.25
2018-11-06T00:10:10.914Z,26.45
2018-11-06T00:12:39.693Z,24.23
2018-11-06T00:15:09.080Z,20.88
2018-11-06T00:17:37.815Z,22.45
2018-11-06T00:20:07.981Z,23.42
2018-11-06T00:22:36.583Z,21.20
2018-11-06T00:25:06.962Z,24.63
2018-11-06T00:27:35.526Z,24.12
2018-11-06T00:30:04.325Z,26.68
2018-11-06T00:32:32.850Z,22.82
2018-11-06T00:35:01.355Z,21.57
2018-11-06T00:37:29.889Z,21.45
2018-11-06T00:39:58.450Z,17.75
2018-11-06T00:42:27.077Z,22.20
2018-11-06T00:44:55.646Z,19.92
2018-11-06T00:47:24.234Z,26.30
2018-11-06T00:49:52.690Z,20.23
2018-11-06T00:52:21.272Z,24.45
2018-11-06T00:54:49.801Z,19.42
2018-11-06T00:57:18.385Z,22.62
2018-11-06T00:59:47.663Z,22.67
2018-11-06T01:02:16.201Z,26.05
2018-11-06T01:04:44.698Z,21.75
2018-11-06T01:07:13.726Z,20.60
2018-11-06T01:09:42.205Z,29.30
2018-11-06T01:12:10.721Z,21.90
2018-11-06T01:14:39.148Z,27.48
2018-11-06T01:17:07.654Z,21.75
2018-11-06T01:19:36.105Z,21.23
2018-11-06T01:22:05.279Z,22.25
2018-11-06T01:24:33.742Z,20.75
2018-11-06T01:27:02.264Z,21.62
2018-11-06T01:29:30.806Z,23.02
2018-11-06T01:31:59.327Z,20.80
2018-11-06T01:34:27.877Z,23.05
2018-11-06T01:36:56.356Z,18.98
2018-11-06T01:39:24.835Z,19.30
2018-11-06T01:41:53.317Z,21.45
2018-11-06T01:44:21.825Z,22.62
2018-11-06T01:46:50.310Z,17.95
2018-11-06T01:49:18.935Z,22.98
2018-11-06T01:51:47.429Z,20.70
2018-11-06T01:54:15.993Z,22.35
2018-11-06T01:56:45.056Z,20.68
2018-11-06T01:59:13.590Z,25.05
2018-11-06T02:01:42.126Z,24.50
2018-11-06T02:04:10.638Z,23.90
2018-11-06T02:06:39.126Z,24.50
2018-11-06T02:09:09.229Z,19.40
2018-11-06T02:11:37.822Z,22.13
2018-11-06T02:14:07.002Z,21.73
2018-11-06T02:16:35.492Z,22.00
2018-11-06T02:19:03.977Z,22.15
2018-11-06T02:21:32.499Z,22.20
2018-11-06T02:24:01.037Z,17.55
2018-11-06T02:26:29.543Z,19.90
2018-11-06T02:28:58.293Z,23.47
2018-11-06T02:31:26.774Z,21.52
2018-11-06T02:33:55.270Z,21.97
2018-11-06T02:36:23.811Z,21.20
2018-11-06T02:38:52.971Z,19.45
2018-11-06T02:41:21.556Z,22.00
2018-11-06T02:43:50.140Z,20.80
2018-11-06T02:46:18.660Z,18.87
2018-11-06T02:48:47.197Z,18.57
2018-11-06T02:51:15.717Z,21.65
2018-11-06T02:53:44.211Z,21.97
2018-11-06T02:56:12.707Z,26.68
2018-11-06T02:58:41.229Z,20.60
2018-11-06T03:01:09.745Z,23.90
2018-11-06T03:03:42.353Z,20.80
2018-11-06T03:06:12.163Z,24.60
2018-11-06T03:08:41.066Z,17.15
2018-11-06T03:11:09.602Z,25.00
2018-11-06T03:13:38.141Z,18.50
2018-11-06T03:16:06.608Z,18.85
2018-11-06T03:18:35.130Z,20.92
2018-11-06T03:21:03.609Z,19.85
2018-11-06T03:23:32.165Z,19.23
2018-11-06T03:26:00.663Z,19.25
2018-11-06T03:28:29.358Z,20.62
2018-11-06T03:30:57.798Z,20.15
2018-11-06T03:33:26.316Z,20.32
2018-11-06T03:35:54.856Z,20.30
2018-11-06T03:38:23.296Z,22.13
2018-11-06T03:40:51.837Z,20.75
2018-11-06T03:43:20.366Z,19.00
2018-11-06T03:45:48.885Z,26.07
2018-11-06T03:48:17.422Z,20.55
2018-11-06T03:50:46.058Z,21.42
2018-11-06T03:53:21.118Z,19.57
2018-11-06T03:55:49.685Z,19.27
2018-11-06T03:58:18.192Z,23.02
2018-11-06T04:00:46.745Z,23.02
2018-11-06T04:03:15.292Z,19.45
2018-11-06T04:05:43.877Z,21.52
2018-11-06T04:08:12.440Z,21.82
2018-11-06T04:10:40.906Z,21.68
2018-11-06T04:13:10.127Z,23.50
2018-11-06T04:15:38.630Z,20.20
2018-11-06T04:18:07.166Z,23.90
2018-11-06T04:20:35.736Z,21.40
2018-11-06T04:23:04.231Z,22.37
2018-11-06T04:25:32.889Z,18.52
2018-11-06T04:28:01.509Z,18.35
2018-11-06T04:30:30.055Z,18.32
2018-11-06T04:32:58.492Z,22.02
2018-11-06T04:35:27.096Z,21.70
2018-11-06T04:37:55.597Z,24.82
2018-11-06T04:40:24.042Z,25.10
2018-11-06T04:42:52.576Z,21.65
2018-11-06T04:45:21.081Z,19.10
2018-11-06T04:47:49.575Z,21.25
2018-11-06T04:50:19.682Z,19.15
2018-11-06T04:52:48.228Z,19.95
2018-11-06T04:55:16.744Z,22.25
2018-11-06T04:57:45.252Z,22.22
2018-11-06T05:00:15.005Z,23.25
2018-11-06T05:02:44.108Z,25.25
2018-11-06T05:05:13.199Z,27.48
2018-11-06T05:07:41.701Z,27.30
2018-11-06T05:10:11.901Z,31.20
2018-11-06T05:12:40.415Z,26.80
2018-11-06T05:15:10.649Z,27.13
2018-11-06T05:17:39.229Z,18.35
2018-11-06T05:20:09.941Z,20.55
2018-11-06T05:22:38.473Z,22.10
2018-11-06T05:25:07.740Z,19.77
2018-11-06T05:27:36.285Z,28.07
2018-11-06T05:30:04.885Z,22.50
2018-11-06T05:32:33.425Z,23.70
2018-11-06T05:35:01.987Z,25.97
2018-11-06T05:37:30.513Z,28.42
2018-11-06T05:40:10.177Z,25.60
2018-11-06T05:42:38.673Z,20.52
2018-11-06T05:45:07.341Z,21.10
2018-11-06T05:47:35.859Z,19.67
2018-11-06T05:50:04.493Z,21.42
2018-11-06T05:52:32.991Z,21.62
2018-11-06T05:55:01.543Z,22.93
2018-11-06T05:57:30.111Z,26.00
2018-11-06T05:59:58.581Z,21.27
2018-11-06T06:02:27.102Z,24.95
2018-11-06T06:04:55.615Z,28.67
2018-11-06T06:07:24.162Z,18.30
2018-11-06T06:09:52.677Z,24.63
2018-11-06T06:12:21.176Z,27.20
2018-11-06T06:14:50.341Z,24.77
2018-11-06T06:17:19.215Z,34.15
2018-11-06T06:19:48.177Z,27.80
2018-11-06T06:22:17.144Z,26.52
2018-11-06T06:24:46.168Z,32.30
2018-11-06T06:27:15.136Z,29.98
2018-11-06T06:29:43.649Z,31.40
2018-11-06T06:32:12.087Z,27.48
2018-11-06T06:34:40.664Z,28.92
2018-11-06T06:37:09.147Z,30.97
2018-11-06T06:39:37.694Z,32.35
2018-11-06T06:42:06.612Z,29.30
2018-11-06T06:44:35.137Z,28.17
2018-11-06T06:47:03.646Z,32.70
2018-11-06T06:49:32.104Z,34.35
2018-11-06T06:52:00.604Z,36.50
2018-11-06T06:54:29.383Z,39.20
2018-11-06T06:56:57.678Z,30.32
2018-11-06T06:59:26.237Z,29.82
2018-11-06T07:01:54.816Z,29.37
2018-11-06T07:04:23.630Z,32.08
2018-11-06T07:06:52.150Z,31.93
2018-11-06T07:09:20.675Z,33.38
2018-11-06T07:11:49.190Z,31.80
2018-11-06T07:14:17.747Z,41.42
2018-11-06T07:16:46.257Z,33.70
2018-11-06T07:19:14.795Z,35.10
2018-11-06T07:21:43.352Z,39.05
2018-11-06T07:24:11.910Z,28.07
2018-11-06T07:26:40.470Z,28.30
2018-11-06T07:29:09.036Z,37.15
2018-11-06T07:31:37.546Z,32.10
2018-11-06T07:34:06.107Z,31.85
2018-11-06T07:36:34.659Z,37.93
2018-11-06T07:39:03.706Z,41.95
2018-11-06T07:41:32.397Z,37.38
2018-11-06T07:44:01.149Z,32.70
2018-11-06T07:46:29.725Z,32.33
2018-11-06T07:48:58.218Z,35.28
2018-11-06T07:51:26.726Z,34.00
2018-11-06T07:53:55.298Z,30.80
2018-11-06T07:56:23.929Z,33.63
2018-11-06T07:58:52.273Z,36.28
2018-11-06T08:01:20.983Z,33.73
2018-11-06T08:03:49.500Z,27.32
2018-11-06T08:06:18.061Z,30.20
2018-11-06T08:08:46.505Z,39.90
2018-11-06T08:11:15.027Z,30.55
2018-11-06T08:13:43.585Z,32.20
2018-11-06T08:16:12.178Z,34.35
2018-11-06T08:18:40.698Z,30.12
2018-11-06T08:21:09.135Z,29.45
2018-11-06T08:23:37.842Z,29.95
2018-11-06T08:26:06.727Z,35.70
2018-11-06T08:28:35.293Z,29.57
2018-11-06T08:31:03.905Z,36.45
2018-11-06T08:33:32.270Z,36.38
2018-11-06T08:36:00.803Z,38.83
2018-11-06T08:38:29.348Z,36.08
2018-11-06T08:40:57.868Z,40.90
2018-11-06T08:43:26.448Z,35.73
2018-11-06T08:45:54.993Z,35.78
2018-11-06T08:48:23.538Z,35.28
2018-11-06T08:51:01.486Z,41.77
2018-11-06T08:53:30.017Z,31.80
2018-11-06T08:55:59.211Z,31.03
2018-11-06T08:58:27.825Z,25.20
2018-11-06T09:00:56.343Z,29.20
2018-11-06T09:03:25.737Z,30.67
2018-11-06T09:05:54.338Z,28.80
2018-11-06T09:08:23.023Z,23.10
2018-11-06T09:10:52.262Z,29.10
2018-11-06T09:13:20.887Z,27.80
2018-11-06T09:15:49.371Z,34.37
2018-11-06T09:18:17.923Z,30.80
2018-11-06T09:20:46.433Z,34.63
2018-11-06T09:23:14.989Z,35.37
2018-11-06T09:25:43.513Z,29.10
2018-11-06T09:28:12.049Z,32.30
2018-11-06T09:30:40.687Z,26.77
2018-11-06T09:33:09.182Z,28.03
2018-11-06T09:35:37.577Z,29.47
2018-11-06T09:38:07.327Z,26.77
2018-11-06T09:40:35.894Z,28.90
2018-11-06T09:43:04.790Z,29.10
2018-11-06T09:45:33.997Z,27.93
2018-11-06T09:48:02.590Z,28.80
2018-11-06T09:50:31.092Z,29.10
2018-11-06T09:52:59.558Z,30.90
2018-11-06T09:55:28.041Z,28.93
2018-11-06T09:57:56.513Z,26.10
2018-11-06T10:00:25.346Z,28.23
2018-11-06T10:02:53.842Z,31.37
2018-11-06T10:05:22.671Z,37.00
2018-11-06T10:07:51.180Z,33.17
2018-11-06T10:10:19.681Z,29.20
2018-11-06T10:12:48.788Z,30.40
2018-11-06T10:15:18.758Z,30.00
2018-11-06T10:17:48.260Z,28.70
2018-11-06T10:20:17.760Z,31.33
2018-11-06T10:22:46.353Z,30.87
2018-11-06T10:25:14.803Z,30.90
2018-11-06T10:27:43.346Z,28.33
2018-11-06T10:30:13.865Z,30.93
2018-11-06T10:32:42.566Z,29.40
2018-11-06T10:35:11.518Z,34.77
2018-11-06T10:37:40.053Z,34.80
2018-11-06T10:40:11.185Z,29.70
2018-11-06T10:42:39.789Z,28.67
2018-11-06T10:45:08.904Z,29.07
2018-11-06T10:47:37.486Z,34.53
2018-11-06T10:50:06.789Z,26.97
2018-11-06T10:52:35.280Z,32.57
2018-11-06T10:55:03.859Z,26.00
2018-11-06T10:57:32.347Z,29.50
2018-11-06T11:00:01.002Z,29.37
2018-11-06T11:02:34.922Z,27.73
2018-11-06T11:05:03.468Z,31.77
2018-11-06T11:07:32.171Z,32.00
2018-11-06T11:10:00.833Z,22.40
2018-11-06T11:12:29.297Z,23.70
2018-11-06T11:14:57.887Z,21.73
2018-11-06T11:17:26.413Z,22.80
2018-11-06T11:19:54.912Z,24.83
2018-11-06T11:22:24.592Z,24.87
2018-11-06T11:24:53.084Z,17.80
2018-11-06T11:27:21.647Z,21.73
2018-11-06T11:29:50.290Z,20.30
2018-11-06T11:32:18.916Z,21.47
2018-11-06T11:34:47.694Z,15.93
2018-11-06T11:37:16.267Z,18.27
2018-11-06T11:39:44.773Z,15.60
2018-11-06T11:42:13.387Z,17.97
2018-11-06T11:44:41.879Z,15.70
2018-11-06T11:47:10.480Z,17.80
2018-11-06T11:49:39.577Z,17.67
2018-11-06T11:52:08.141Z,16.17
2018-11-06T11:54:36.742Z,18.07
2018-11-06T11:57:05.629Z,16.20
2018-11-06T11:59:34.325Z,16.57
2018-11-06T12:02:02.850Z,18.00
2018-11-06T12:04:31.302Z,16.17
2018-11-06T12:06:59.832Z,16.27
2018-11-06T12:09:28.372Z,15.10
2018-11-06T12:11:56.861Z,13.40
2018-11-06T12:14:25.424Z,15.07
2018-11-06T12:16:53.888Z,12.10
2018-11-06T12:19:22.381Z,13.20
2018-11-06T12:21:50.793Z,12.30
2018-11-06T12:24:19.352Z,9.67
2018-11-06T12:26:48.024Z,14.93
2018-11-06T12:29:16.547Z,11.47
2018-11-06T12:31:45.050Z,16.10
2018-11-06T12:34:13.557Z,10.50
2018-11-06T12:36:42.361Z,12.17
2018-11-06T12:39:11.584Z,13.07
2018-11-06T12:41:40.352Z,11.70
2018-11-06T12:44:09.918Z,14.63
2018-11-06T12:46:38.501Z,10.83
2018-11-06T12:49:07.082Z,12.63
2018-11-06T12:51:35.807Z,12.00
2018-11-06T12:54:04.474Z,9.77
2018-11-06T12:56:33.293Z,11.43
2018-11-06T12:59:01.994Z,10.40
2018-11-06T13:01:30.556Z,10.33
2018-11-06T13:03:58.992Z,10.03
2018-11-06T13:06:27.893Z,11.70
2018-11-06T13:08:56.563Z,8.50
2018-11-06T13:11:25.051Z,10.27
2018-11-06T13:13:53.604Z,9.50
2018-11-06T13:16:22.190Z,10.30
2018-11-06T13:18:50.754Z,8.67
2018-11-06T13:21:19.257Z,11.50
2018-11-06T13:23:47.750Z,8.63
2018-11-06T13:26:16.438Z,8.07
2018-11-06T13:28:44.829Z,10.63
2018-11-06T13:31:13.509Z,8.80
2018-11-06T13:33:42.142Z,10.30
2018-11-06T13:36:10.757Z,9.70
2018-11-06T13:38:39.199Z,8.97
2018-11-06T13:41:08.233Z,9.27
2018-11-06T13:43:36.949Z,9.93
2018-11-06T13:46:05.556Z,11.70
2018-11-06T13:48:34.219Z,11.90
2018-11-06T13:51:02.909Z,10.63
2018-11-06T13:53:31.841Z,9.37
2018-11-06T13:56:00.451Z,11.57
2018-11-06T13:58:28.951Z,9.13
2018-11-06T14:00:57.499Z,10.17
2018-11-06T14:03:26.132Z,8.90
2018-11-06T14:05:54.770Z,10.70
2018-11-06T14:08:23.431Z,11.40
2018-11-06T14:10:52.662Z,9.23
2018-11-06T14:13:21.233Z,10.40
2018-11-06T14:15:49.797Z,11.67
2018-11-06T14:18:18.528Z,9.20
2018-11-06T14:20:47.142Z,9.47
2018-11-06T14:23:15.610Z,11.00
2018-11-06T14:25:44.137Z,11.90
2018-11-06T14:28:13.019Z,10.23
2018-11-06T14:30:41.554Z,11.50
2018-11-06T14:33:10.059Z,8.50
2018-11-06T14:35:38.662Z,9.77
2018-11-06T14:38:07.363Z,9.00
2018-11-06T14:40:36.071Z,12.93
2018-11-06T14:43:04.651Z,12.03
2018-11-06T14:45:33.181Z,10.47
2018-11-06T14:48:01.816Z,10.37
2018-11-06T14:50:30.313Z,14.27
2018-11-06T14:52:58.802Z,13.77
2018-11-06T14:55:27.292Z,16.87
2018-11-06T14:57:55.882Z,13.60
2018-11-06T15:00:24.452Z,10.50
2018-11-06T15:02:53.628Z,13.37
2018-11-06T15:05:22.766Z,9.90
2018-11-06T15:07:51.421Z,9.73
2018-11-06T15:10:19.966Z,13.63
2018-11-06T15:12:48.617Z,9.50
2018-11-06T15:15:17.469Z,11.60
2018-11-06T15:17:46.886Z,12.47
2018-11-06T15:20:19.881Z,9.87
2018-11-06T15:22:48.484Z,10.90
2018-11-06T15:25:17.630Z,12.23
2018-11-06T15:27:46.349Z,9.30
2018-11-06T15:30:16.209Z,8.77
2018-11-06T15:32:44.734Z,8.47
2018-11-06T15:35:14.405Z,10.23
2018-11-06T15:37:43.000Z,11.20
2018-11-06T15:40:13.716Z,11.03
2018-11-06T15:42:42.263Z,9.30
2018-11-06T15:45:13.321Z,10.60
2018-11-06T15:47:42.825Z,10.33
2018-11-06T15:50:13.383Z,11.33
2018-11-06T15:52:42.535Z,11.43
2018-11-06T15:55:11.047Z,18.27
2018-11-06T15:57:39.609Z,9.47
2018-11-06T16:00:13.547Z,9.00
2018-11-06T16:02:42.582Z,10.60
2018-11-06T16:05:11.109Z,9.63
2018-11-06T16:07:40.034Z,11.37
2018-11-06T16:10:11.189Z,12.70
2018-11-06T16:12:39.980Z,11.17
2018-11-06T16:15:09.275Z,12.87
2018-11-06T16:17:38.360Z,21.23
2018-11-06T16:20:08.836Z,21.70
2018-11-06T16:22:37.324Z,19.03
2018-11-06T16:25:07.713Z,12.17
2018-11-06T16:27:36.423Z,12.70
2018-11-06T16:30:05.257Z,14.73
2018-11-06T16:32:33.909Z,17.77
2018-11-06T16:35:02.442Z,20.60
2018-11-06T16:37:30.953Z,17.33
2018-11-06T16:39:59.559Z,14.43
2018-11-06T16:42:28.309Z,19.50
2018-11-06T16:44:57.155Z,16.70
2018-11-06T16:47:25.845Z,17.20
2018-11-06T16:49:54.406Z,11.57
2018-11-06T16:52:23.343Z,19.10
2018-11-06T16:54:52.039Z,24.90
2018-11-06T16:57:20.991Z,24.00
2018-11-06T16:59:49.618Z,22.00
2018-11-06T17:02:18.260Z,21.07
2018-11-06T17:04:46.842Z,16.80
2018-11-06T17:07:15.392Z,16.10
2018-11-06T17:09:44.480Z,17.80
2018-11-06T17:12:13.120Z,19.13
2018-11-06T17:14:41.661Z,19.70
2018-11-06T17:17:10.293Z,20.70
2018-11-06T17:19:38.825Z,18.23
2018-11-06T17:22:07.524Z,21.00
2018-11-06T17:24:36.029Z,12.93
2018-11-06T17:27:05.018Z,14.77
2018-11-06T17:29:33.569Z,12.83
2018-11-06T17:32:02.689Z,14.30
2018-11-06T17:34:31.263Z,16.43
2018-11-06T17:36:59.822Z,14.30
2018-11-06T17:39:28.406Z,10.80
2018-11-06T17:41:57.059Z,17.53
2018-11-06T17:44:25.652Z,15.23
2018-11-06T17:46:54.289Z,15.30
2018-11-06T17:49:23.110Z,11.83
2018-11-06T17:51:58.250Z,11.67
2018-11-06T17:54:26.737Z,11.05
2018-11-06T17:56:55.238Z,11.67
2018-11-06T17:59:23.896Z,12.37
2018-11-06T18:01:52.479Z,11.07
2018-11-06T18:04:21.210Z,12.07
2018-11-06T18:06:49.778Z,17.83
2018-11-06T18:09:18.372Z,13.00
2018-11-06T18:11:47.074Z,13.70
2018-11-06T18:14:15.623Z,10.60
2018-11-06T18:16:44.168Z,12.10
2018-11-06T18:19:12.766Z,10.38
2018-11-06T18:21:41.475Z,10.90
2018-11-06T18:24:10.018Z,12.07
2018-11-06T18:26:38.861Z,13.45
2018-11-06T18:29:07.572Z,11.28
2018-11-06T18:31:36.143Z,13.22
2018-11-06T18:34:04.981Z,16.42
2018-11-06T18:36:33.530Z,14.47
2018-11-06T18:39:02.063Z,12.00
2018-11-06T18:41:30.576Z,11.95
2018-11-06T18:43:59.174Z,16.25
2018-11-06T18:46:27.776Z,14.50
2018-11-06T18:48:56.318Z,14.30
2018-11-06T18:51:24.979Z,16.45
2018-11-06T18:53:53.654Z,14.57
2018-11-06T18:56:22.146Z,13.60
2018-11-06T18:58:50.805Z,13.72
2018-11-06T19:01:19.434Z,17.20
2018-11-06T19:03:48.168Z,14.35
2018-11-06T19:06:16.755Z,15.25
2018-11-06T19:08:45.458Z,12.65
2018-11-06T19:11:14.921Z,13.58
2018-11-06T19:13:43.570Z,13.53
2018-11-06T19:16:12.450Z,11.80
2018-11-06T19:18:41.654Z,13.57
2018-11-06T19:24:28.984Z,13.58
2018-11-06T19:27:00.068Z,15.48
2018-11-06T19:29:29.020Z,13.45
2018-11-06T19:31:58.046Z,14.03
2018-11-06T19:34:26.620Z,19.50
2018-11-06T19:36:55.353Z,11.05
2018-11-06T19:39:23.929Z,16.70
2018-11-06T19:41:52.491Z,13.45
2018-11-06T19:44:21.025Z,12.10
2018-11-06T19:46:49.722Z,19.42
2018-11-06T19:49:18.997Z,10.65
2018-11-06T19:51:47.644Z,12.18
2018-11-06T19:54:16.334Z,15.60
2018-11-06T19:56:44.921Z,13.90
2018-11-06T19:59:13.678Z,17.95
2018-11-06T20:01:42.438Z,12.82
2018-11-06T20:04:11.425Z,11.57
2018-11-06T20:06:40.406Z,16.35
2018-11-06T20:09:10.701Z,13.32
2018-11-06T20:11:40.066Z,13.40
2018-11-06T20:14:09.150Z,13.85
2018-11-06T20:16:38.296Z,18.27
2018-11-06T20:19:07.211Z,13.28
2018-11-06T20:21:36.311Z,19.60
2018-11-06T20:24:05.780Z,20.92
2018-11-06T20:26:34.956Z,14.83
2018-11-06T20:29:04.148Z,13.65
2018-11-06T20:31:33.131Z,14.73
2018-11-06T20:34:02.375Z,13.18
2018-11-06T20:36:32.148Z,15.72
2018-11-06T20:39:02.028Z,13.65
2018-11-06T20:41:31.688Z,14.00
2018-11-06T20:44:01.747Z,12.07
2018-11-06T20:46:31.862Z,16.45
2018-11-06T20:49:01.372Z,14.58
2018-11-06T20:51:30.794Z,14.90
2018-11-06T20:54:01.713Z,14.20
2018-11-06T20:56:30.461Z,18.20
2018-11-06T20:58:59.029Z,14.10
2018-11-06T21:01:27.627Z,18.87
2018-11-06T21:03:57.602Z,14.80
2018-11-06T21:06:27.449Z,16.17
2018-11-06T21:08:56.129Z,15.20
2018-11-06T21:11:26.606Z,15.85
2018-11-06T21:13:55.622Z,12.58
2018-11-06T21:16:25.318Z,15.35
2018-11-06T21:18:56.194Z,13.93
2018-11-06T21:21:25.237Z,13.75
2018-11-06T21:23:53.874Z,18.80
2018-11-06T21:26:22.565Z,15.40
2018-11-06T21:28:53.336Z,13.65
2018-11-06T21:34:13.273Z,16.67
2018-11-06T21:36:43.995Z,17.92
2018-11-06T21:39:18.918Z,17.25
2018-11-06T21:41:48.241Z,14.30
2018-11-06T21:44:17.192Z,14.07
2018-11-06T21:46:47.712Z,19.30
2018-11-06T21:49:17.575Z,16.27
2018-11-06T21:51:47.911Z,23.42
2018-11-06T21:54:16.925Z,22.10
2018-11-06T21:56:46.521Z,24.05
2018-11-06T21:59:15.825Z,15.43
2018-11-06T22:01:46.529Z,14.38
2018-11-06T22:04:21.299Z,13.95
2018-11-06T22:06:50.212Z,14.43
2018-11-06T22:09:18.949Z,18.75
2018-11-06T22:11:48.805Z,16.87
2018-11-06T22:14:17.852Z,18.57
2018-11-06T22:16:46.585Z,21.87
2018-11-06T22:19:16.754Z,21.75
2018-11-06T22:21:45.843Z,22.42
2018-11-06T22:24:14.745Z,26.62
2018-11-06T22:26:43.678Z,26.35
2018-11-06T22:29:12.344Z,23.65
2018-11-06T22:31:42.040Z,34.05
2018-11-06T22:34:11.404Z,35.60
2018-11-06T22:36:40.373Z,29.35
2018-11-06T22:39:11.036Z,36.70
2018-11-06T22:41:40.551Z,36.30
2018-11-06T22:44:09.464Z,29.75
2018-11-06T22:46:38.026Z,26.27
2018-11-06T22:49:07.214Z,30.27
2018-11-06T22:51:35.715Z,29.87
2018-11-06T22:54:04.560Z,36.88
2018-11-06T22:56:33.088Z,29.37
2018-11-06T22:59:01.724Z,34.70
2018-11-06T23:01:30.380Z,31.33
2018-11-06T23:03:58.868Z,37.60
2018-11-06T23:06:28.528Z,34.95
2018-11-06T23:08:57.100Z,37.45
2018-11-06T23:11:25.755Z,40.10
2018-11-06T23:13:54.426Z,42.58
2018-11-06T23:16:22.973Z,37.07
2018-11-06T23:18:51.492Z,40.48
2018-11-06T23:21:20.073Z,35.20
2018-11-06T23:23:48.676Z,40.43
2018-11-06T23:26:17.233Z,44.77
2018-11-06T23:28:46.351Z,36.00
2018-11-06T23:31:15.179Z,39.88
2018-11-06T23:33:45.039Z,41.75
2018-11-06T23:36:13.725Z,38.90
2018-11-06T23:38:42.273Z,41.75
2018-11-06T23:41:10.718Z,39.95
2018-11-06T23:43:39.210Z,43.85
2018-11-06T23:46:07.724Z,36.13
2018-11-06T23:48:36.270Z,39.73
2018-11-06T23:51:04.766Z,43.25
2018-11-06T23:53:33.340Z,41.20
2018-11-06T23:56:01.912Z,42.27
2018-11-06T23:58:30.503Z,35.68
